Mulberry, Kansas
Current Conditions -  °F | °C
As of 11:55 AM on Sunday 21 Dec 2014 (Local Time) from KPTS Reporting Station
Haze Haze  
Wind Chill: 38°   Ceiling: 700
Heat Index: 45°   Visibility: 4mi
Dew Point: 45°   Wind: 15mph
Humidity: 100%   Direction: 180°S
Pressure: 29.98"   Gusts: 21mph
Location:  37.56°N, 94.62°W
Report Text: KPTS 211755Z AUTO 18013G18KT 4SM BR BKN007 OVC011 07/07 A2998 RMK AO2 T00700071
Loading
Personal Weather Stations






























Interactive Weather Map New forecast layout! Learn more

10-Day Weather Forecast

Advertisements
Track Severe Weather on mobile